createdAt,value
2023-04-08T00:01:04.852Z,51.30
2023-04-08T00:11:11.037Z,50.42
2023-04-08T00:21:17.089Z,50.70
2023-04-08T00:31:23.587Z,49.98
2023-04-08T00:41:30.289Z,50.03
2023-04-08T00:51:36.696Z,49.77
2023-04-08T01:01:43.312Z,49.79
2023-04-08T01:11:49.841Z,49.65
2023-04-08T01:21:55.935Z,49.66
2023-04-08T01:32:02.712Z,49.56
2023-04-08T01:42:08.860Z,49.62
2023-04-08T01:52:15.497Z,49.70
2023-04-08T02:02:21.991Z,49.69
2023-04-08T02:12:28.498Z,49.64
2023-04-08T02:22:35.460Z,49.68
2023-04-08T02:32:41.819Z,49.64
2023-04-08T02:42:49.073Z,49.69
2023-04-08T02:52:55.934Z,49.68
2023-04-08T03:03:02.749Z,49.76
2023-04-08T03:13:10.389Z,49.81
2023-04-08T03:23:17.654Z,49.81
2023-04-08T03:33:24.259Z,49.88
2023-04-08T03:43:30.704Z,49.80
2023-04-08T03:53:37.221Z,49.71
2023-04-08T04:03:44.323Z,49.73
2023-04-08T04:13:50.984Z,49.72
2023-04-08T04:23:57.752Z,49.81
2023-04-08T04:34:04.279Z,49.77
2023-04-08T04:44:10.584Z,49.77
2023-04-08T04:54:17.240Z,49.77
2023-04-08T05:04:23.065Z,49.79
2023-04-08T05:14:29.983Z,49.76
2023-04-08T05:24:36.703Z,49.81
2023-04-08T05:34:43.795Z,49.84
2023-04-08T05:44:49.960Z,49.85
2023-04-08T05:54:56.848Z,49.74
2023-04-08T06:05:03.058Z,49.72
2023-04-08T06:15:09.304Z,49.73
2023-04-08T06:25:15.609Z,49.73
2023-04-08T06:35:22.202Z,49.68
2023-04-08T06:45:28.906Z,49.66
2023-04-08T06:55:35.180Z,49.64
2023-04-08T07:05:42.100Z,49.64
2023-04-08T07:15:49.168Z,49.61
2023-04-08T07:25:55.881Z,49.57
2023-04-08T07:36:02.197Z,49.58
2023-04-08T07:46:08.541Z,49.58
2023-04-08T07:56:15.570Z,49.59
2023-04-08T08:06:22.743Z,49.63
2023-04-08T08:16:29.022Z,49.66
2023-04-08T08:26:35.601Z,49.67
2023-04-08T08:36:41.643Z,49.67
2023-04-08T08:46:48.845Z,50.25
2023-04-08T08:56:54.938Z,50.24
2023-04-08T09:07:01.431Z,50.15
2023-04-08T09:17:08.635Z,50.03
2023-04-08T09:27:14.893Z,49.84
2023-04-08T09:37:21.909Z,49.80
2023-04-08T09:47:28.954Z,49.43
2023-04-08T09:57:36.270Z,49.41
2023-04-08T10:07:43.353Z,49.30
2023-04-08T10:17:50.696Z,49.31
2023-04-08T10:27:59.835Z,49.51
2023-04-08T10:38:06.539Z,49.41
2023-04-08T10:48:12.634Z,49.29
2023-04-08T10:58:18.921Z,49.14
2023-04-08T11:08:25.237Z,49.34
2023-04-08T11:18:31.737Z,49.30
2023-04-08T11:28:37.821Z,49.00
2023-04-08T11:38:43.969Z,49.13
2023-04-08T11:48:50.476Z,49.18
2023-04-08T11:58:58.385Z,48.94
2023-04-08T12:09:04.764Z,49.23
2023-04-08T12:19:11.704Z,48.97
2023-04-08T12:29:18.083Z,48.56
2023-04-08T12:39:24.642Z,49.04
2023-04-08T12:49:39.668Z,47.11
2023-04-08T12:59:43.387Z,48.32
2023-04-08T13:09:50.400Z,48.60
2023-04-08T13:19:56.760Z,48.76
2023-04-08T13:30:03.034Z,48.22
2023-04-08T13:40:09.906Z,47.87
2023-04-08T13:50:16.133Z,47.08
2023-04-08T14:00:22.624Z,48.21
2023-04-08T14:10:29.074Z,48.50
2023-04-08T14:20:35.252Z,48.54
2023-04-08T14:30:42.029Z,48.62
2023-04-08T14:40:48.180Z,48.94
2023-04-08T14:50:54.619Z,48.85
2023-04-08T15:01:00.919Z,48.89
2023-04-08T15:11:08.000Z,49.13
2023-04-08T15:21:14.453Z,49.01
2023-04-08T15:31:20.529Z,49.18
2023-04-08T15:41:26.962Z,49.21
2023-04-08T15:51:33.217Z,49.05
2023-04-08T16:01:39.509Z,49.02
2023-04-08T16:11:46.640Z,48.97
2023-04-08T16:21:52.770Z,49.20
2023-04-08T16:31:59.342Z,49.14
2023-04-08T16:42:05.572Z,49.58
2023-04-08T16:52:11.888Z,49.40
2023-04-08T17:02:18.495Z,48.62
2023-04-08T17:12:25.244Z,48.97
2023-04-08T17:22:32.263Z,48.83
2023-04-08T17:32:39.150Z,48.74
2023-04-08T17:42:45.880Z,48.73
2023-04-08T17:52:52.153Z,48.47
2023-04-08T18:02:58.674Z,48.39
2023-04-08T18:13:11.352Z,48.58
2023-04-08T18:23:16.480Z,48.61
2023-04-08T18:33:23.010Z,48.40
2023-04-08T18:43:28.722Z,48.82
2023-04-08T18:53:34.814Z,48.67
2023-04-08T19:03:42.114Z,48.54
2023-04-08T19:13:48.296Z,48.53
2023-04-08T19:23:54.357Z,47.90
2023-04-08T19:34:00.644Z,48.18
2023-04-08T19:44:07.073Z,48.33
2023-04-08T19:54:13.949Z,48.22
2023-04-08T20:04:20.455Z,47.84
2023-04-08T20:14:27.835Z,48.18
2023-04-08T20:24:33.789Z,48.17
2023-04-08T20:34:40.731Z,48.13
2023-04-08T20:44:47.286Z,47.99
2023-04-08T20:54:53.593Z,48.12
2023-04-08T21:05:00.302Z,48.01
2023-04-08T21:15:07.090Z,48.12
2023-04-08T21:25:13.532Z,48.05
2023-04-08T21:35:22.128Z,48.17
2023-04-08T21:45:29.004Z,47.20
2023-04-08T21:55:36.272Z,47.54
2023-04-08T22:05:42.184Z,47.65
2023-04-08T22:15:48.999Z,47.76
2023-04-08T22:25:55.129Z,47.73
2023-04-08T22:36:02.985Z,47.73
2023-04-08T22:46:09.289Z,47.62
2023-04-08T22:56:15.538Z,47.56
2023-04-08T23:06:21.953Z,47.70
2023-04-08T23:16:28.420Z,48.02
2023-04-08T23:26:34.941Z,48.07
2023-04-08T23:36:41.704Z,47.88
2023-04-08T23:46:48.015Z,47.79
2023-04-08T23:56:54.983Z,47.93
